createdAt,value
2023-02-02T00:02:02.283Z,3.06
2023-02-02T00:04:31.666Z,3.01
2023-02-02T00:06:58.982Z,2.97
2023-02-02T00:09:31.082Z,3.12
2023-02-02T00:11:58.908Z,3.01
2023-02-02T00:14:25.609Z,2.98
2023-02-02T00:16:56.724Z,3.08
2023-02-02T00:19:26.590Z,3.06
2023-02-02T00:21:54.472Z,3.06
2023-02-02T00:24:21.764Z,3.09
2023-02-02T00:26:51.188Z,3.07
2023-02-02T00:29:22.611Z,3.16
2023-02-02T00:31:49.577Z,3.07
2023-02-02T00:34:16.815Z,3.19
2023-02-02T00:36:44.726Z,3.14
2023-02-02T00:39:15.355Z,3.12
2023-02-02T00:41:42.090Z,3.04
2023-02-02T00:44:41.036Z,3.05
2023-02-02T00:47:07.667Z,3.02
2023-02-02T00:49:34.189Z,3.03
2023-02-02T00:52:00.865Z,3.04
2023-02-02T00:54:27.859Z,3.12
2023-02-02T00:56:54.579Z,3.07
2023-02-02T00:59:21.140Z,2.96
2023-02-02T01:01:47.908Z,2.85
2023-02-02T01:04:14.497Z,2.87
2023-02-02T01:06:41.016Z,2.80
2023-02-02T01:09:07.665Z,2.71
2023-02-02T01:11:34.289Z,2.76
2023-02-02T01:14:00.980Z,2.75
2023-02-02T01:16:27.891Z,2.71
2023-02-02T01:18:54.549Z,2.68
2023-02-02T01:21:21.456Z,2.66
2023-02-02T01:23:48.255Z,2.69
2023-02-02T01:26:15.778Z,2.68
2023-02-02T01:28:43.091Z,2.72
2023-02-02T01:31:19.343Z,2.73
2023-02-02T01:33:47.412Z,2.77
2023-02-02T01:36:17.026Z,2.76
2023-02-02T01:38:44.086Z,2.71
2023-02-02T01:41:16.846Z,2.69
2023-02-02T01:43:43.513Z,2.71
2023-02-02T01:46:15.621Z,2.68
2023-02-02T01:48:51.485Z,2.74
2023-02-02T01:51:24.375Z,2.71
2023-02-02T01:53:54.518Z,2.57
2023-02-02T01:56:34.158Z,2.57
2023-02-02T01:59:01.813Z,2.65
2023-02-02T02:01:28.696Z,2.68
2023-02-02T02:03:56.405Z,2.64
2023-02-02T02:06:25.974Z,2.62
2023-02-02T02:09:00.664Z,2.82
2023-02-02T02:11:27.651Z,2.81
2023-02-02T02:14:15.255Z,2.65
2023-02-02T02:16:53.585Z,2.45
2023-02-02T02:19:30.512Z,2.40
2023-02-02T02:22:27.766Z,2.34
2023-02-02T02:25:43.160Z,2.31
2023-02-02T02:28:36.031Z,2.48
2023-02-02T02:31:16.428Z,2.53
2023-02-02T02:33:55.170Z,2.46
2023-02-02T02:36:51.039Z,2.46
2023-02-02T02:39:39.852Z,2.44
2023-02-02T02:42:20.629Z,2.62
2023-02-02T02:44:49.500Z,2.65
2023-02-02T02:47:19.267Z,2.60
2023-02-02T02:49:48.119Z,2.65
2023-02-02T02:52:15.078Z,2.74
2023-02-02T02:54:49.916Z,2.65
2023-02-02T02:57:42.866Z,2.70
2023-02-02T03:00:23.096Z,2.57
2023-02-02T03:03:08.249Z,2.46
2023-02-02T03:05:50.270Z,2.63
2023-02-02T03:08:40.083Z,2.65
2023-02-02T03:11:09.790Z,2.63
2023-02-02T03:13:36.647Z,2.70
2023-02-02T03:16:03.382Z,2.72
2023-02-02T03:18:32.805Z,2.78
2023-02-02T03:21:00.225Z,2.61
2023-02-02T03:23:27.237Z,2.83
2023-02-02T03:25:55.324Z,2.75
2023-02-02T03:28:24.000Z,2.72
2023-02-02T03:30:52.185Z,2.69
2023-02-02T03:33:19.517Z,2.84
2023-02-02T03:35:46.415Z,2.69
2023-02-02T03:38:13.071Z,2.70
2023-02-02T03:40:40.599Z,2.78
2023-02-02T03:43:07.222Z,2.58
2023-02-02T03:45:35.698Z,2.53
2023-02-02T03:48:06.132Z,2.75
2023-02-02T03:50:33.480Z,2.72
2023-02-02T03:53:00.567Z,2.57
2023-02-02T03:55:27.243Z,2.65
2023-02-02T03:57:53.894Z,2.64
2023-02-02T04:00:20.982Z,2.71
2023-02-02T04:02:47.632Z,2.68
2023-02-02T04:05:14.280Z,2.65
2023-02-02T04:07:40.860Z,2.70
2023-02-02T04:10:07.607Z,2.64
2023-02-02T04:12:34.175Z,2.62
2023-02-02T04:15:00.865Z,2.56
2023-02-02T04:17:27.432Z,2.61
2023-02-02T04:19:58.316Z,2.63
2023-02-02T04:22:26.097Z,2.59
2023-02-02T04:24:52.833Z,2.63
2023-02-02T04:27:19.421Z,2.58
2023-02-02T04:29:45.965Z,2.53
2023-02-02T04:32:14.942Z,2.70
2023-02-02T04:34:41.555Z,2.66
2023-02-02T04:37:08.328Z,2.57
2023-02-02T04:39:34.990Z,2.62
2023-02-02T04:42:02.064Z,2.56
2023-02-02T04:44:28.827Z,2.51
2023-02-02T04:46:55.479Z,2.41
2023-02-02T04:49:22.083Z,2.49
2023-02-02T04:51:50.499Z,2.47
2023-02-02T04:54:17.151Z,2.45
2023-02-02T04:56:43.873Z,2.45
2023-02-02T04:59:10.417Z,2.43
2023-02-02T05:01:37.070Z,2.56
2023-02-02T05:04:03.894Z,2.58
2023-02-02T05:06:30.458Z,2.50
2023-02-02T05:08:57.153Z,2.50
2023-02-02T05:11:24.400Z,2.61
2023-02-02T05:13:53.245Z,2.58
2023-02-02T05:16:20.596Z,2.57
2023-02-02T05:18:56.732Z,2.56
2023-02-02T05:21:23.855Z,2.60
2023-02-02T05:23:50.607Z,2.48
2023-02-02T05:26:25.941Z,2.61
2023-02-02T05:28:53.183Z,2.62
2023-02-02T05:31:20.914Z,2.49
2023-02-02T05:33:47.641Z,2.53
2023-02-02T05:36:14.563Z,2.55
2023-02-02T05:38:41.172Z,2.63
2023-02-02T05:41:07.873Z,2.63
2023-02-02T05:43:35.009Z,2.63
2023-02-02T05:46:01.896Z,2.65
2023-02-02T05:48:29.095Z,2.63
2023-02-02T05:51:12.251Z,2.59
2023-02-02T05:53:38.868Z,2.48
2023-02-02T05:56:05.959Z,2.45
2023-02-02T05:58:32.544Z,2.48
2023-02-02T06:00:59.143Z,2.50
2023-02-02T06:03:25.699Z,2.52
2023-02-02T06:05:52.662Z,2.50
2023-02-02T06:08:19.375Z,2.47
2023-02-02T06:10:45.983Z,2.57
2023-02-02T06:13:12.623Z,2.42
2023-02-02T06:15:39.242Z,2.40
2023-02-02T06:18:08.632Z,2.44
2023-02-02T06:20:35.725Z,2.48
2023-02-02T06:23:02.664Z,2.67
2023-02-02T06:25:29.688Z,2.72
2023-02-02T06:28:00.726Z,2.71
2023-02-02T06:30:28.291Z,2.78
2023-02-02T06:32:54.897Z,2.88
2023-02-02T06:35:21.747Z,2.79
2023-02-02T06:37:49.279Z,2.83
2023-02-02T06:40:16.449Z,2.73
2023-02-02T06:42:43.021Z,2.69
2023-02-02T06:45:10.322Z,2.72
2023-02-02T06:47:36.985Z,2.75
2023-02-02T06:50:04.362Z,2.71
2023-02-02T06:52:30.973Z,2.65
2023-02-02T06:54:57.593Z,2.75
2023-02-02T06:57:24.385Z,2.80
2023-02-02T06:59:51.460Z,2.90
2023-02-02T07:02:18.316Z,2.85
2023-02-02T07:04:44.847Z,2.97
2023-02-02T07:07:11.364Z,3.05
2023-02-02T07:09:38.103Z,3.00
2023-02-02T07:12:04.625Z,2.96
2023-02-02T07:14:31.179Z,3.08
2023-02-02T07:16:57.627Z,3.11
2023-02-02T07:19:24.117Z,3.15
2023-02-02T07:21:50.813Z,3.23
2023-02-02T07:24:17.365Z,3.14
2023-02-02T07:26:44.090Z,3.17
2023-02-02T07:29:16.544Z,3.26
2023-02-02T07:31:43.257Z,3.36
2023-02-02T07:34:09.999Z,3.37
2023-02-02T07:36:37.067Z,3.33
2023-02-02T07:39:05.277Z,3.24
2023-02-02T07:41:34.839Z,3.28
2023-02-02T07:44:01.926Z,3.35
2023-02-02T07:46:28.790Z,3.34
2023-02-02T07:48:56.584Z,3.33
2023-02-02T07:51:24.919Z,3.40
2023-02-02T07:53:53.727Z,3.41
2023-02-02T07:56:22.601Z,3.48
2023-02-02T07:58:52.701Z,3.48
2023-02-02T08:01:20.697Z,3.58
2023-02-02T08:03:47.548Z,3.70
2023-02-02T08:06:23.690Z,3.64
2023-02-02T08:08:50.542Z,3.63
2023-02-02T08:11:20.444Z,3.59
2023-02-02T08:13:52.474Z,3.54
2023-02-02T08:16:19.593Z,3.62
2023-02-02T08:18:46.562Z,3.56
2023-02-02T08:21:13.644Z,3.52
2023-02-02T08:23:41.656Z,3.62
2023-02-02T08:26:13.200Z,3.67
2023-02-02T08:28:41.592Z,3.50
2023-02-02T08:31:22.143Z,3.50
2023-02-02T08:33:49.267Z,3.62
2023-02-02T08:36:18.636Z,3.49
2023-02-02T08:38:46.102Z,3.41
2023-02-02T08:41:16.605Z,3.45
2023-02-02T08:43:43.885Z,3.49
2023-02-02T08:46:14.193Z,3.53
2023-02-02T08:48:41.301Z,3.36
2023-02-02T08:51:10.741Z,3.36
2023-02-02T08:53:37.680Z,3.26
2023-02-02T08:56:12.014Z,3.33
2023-02-02T08:58:39.211Z,3.20
2023-02-02T09:01:25.713Z,3.22
2023-02-02T09:04:18.669Z,3.16
2023-02-02T09:06:45.948Z,3.22
2023-02-02T09:09:16.410Z,3.13
2023-02-02T09:11:43.552Z,3.24
2023-02-02T09:14:12.089Z,3.15
2023-02-02T09:16:39.459Z,3.05
2023-02-02T09:19:06.667Z,3.11
2023-02-02T09:21:37.531Z,3.04
2023-02-02T09:24:12.141Z,3.11
2023-02-02T09:26:40.971Z,3.17
2023-02-02T09:29:11.540Z,3.08
2023-02-02T09:31:38.501Z,3.07
2023-02-02T09:34:08.023Z,3.20
2023-02-02T09:36:35.441Z,3.06
2023-02-02T09:39:02.586Z,2.97
2023-02-02T09:41:35.100Z,3.08
2023-02-02T09:44:39.176Z,2.89
2023-02-02T09:47:20.586Z,2.94
2023-02-02T09:50:02.291Z,3.00
2023-02-02T09:52:34.807Z,2.89
2023-02-02T09:55:09.788Z,2.96
2023-02-02T09:57:54.285Z,2.93
2023-02-02T10:00:29.899Z,3.02
2023-02-02T10:03:06.288Z,3.13
2023-02-02T10:05:47.735Z,3.12
2023-02-02T10:08:34.262Z,3.06
2023-02-02T10:11:15.379Z,3.05
2023-02-02T10:13:44.429Z,3.02
2023-02-02T10:16:20.146Z,3.07
2023-02-02T10:18:58.343Z,3.03
2023-02-02T10:21:39.142Z,3.09
2023-02-02T10:24:12.886Z,3.03
2023-02-02T10:26:52.917Z,3.15
2023-02-02T10:29:47.747Z,3.07
2023-02-02T10:32:24.957Z,3.15
2023-02-02T10:35:20.898Z,3.11
2023-02-02T10:37:59.799Z,3.11
2023-02-02T10:40:48.294Z,3.32
2023-02-02T10:43:48.867Z,3.22
2023-02-02T10:46:43.827Z,3.18
2023-02-02T10:49:27.273Z,3.14
2023-02-02T10:52:20.183Z,3.23
2023-02-02T10:54:58.112Z,3.17
2023-02-02T10:57:47.491Z,3.09
2023-02-02T11:00:26.088Z,3.10
2023-02-02T11:02:53.701Z,2.95
2023-02-02T11:05:42.500Z,2.83
2023-02-02T11:08:22.503Z,2.77
2023-02-02T11:10:54.737Z,2.80
2023-02-02T11:13:31.837Z,2.74
2023-02-02T11:16:16.955Z,2.73
2023-02-02T11:18:44.623Z,2.75
2023-02-02T11:21:18.344Z,2.79
2023-02-02T11:24:20.600Z,2.78
2023-02-02T11:26:52.851Z,2.75
2023-02-02T11:29:31.801Z,2.69
2023-02-02T11:31:58.991Z,2.82
2023-02-02T11:34:27.528Z,2.87
2023-02-02T11:37:12.139Z,2.90
2023-02-02T11:39:40.537Z,2.92
2023-02-02T11:42:15.293Z,2.96
2023-02-02T11:44:50.245Z,2.90
2023-02-02T11:47:35.297Z,2.91
2023-02-02T11:50:04.957Z,3.05
2023-02-02T11:52:34.002Z,3.04
2023-02-02T11:55:15.042Z,3.03
2023-02-02T11:58:03.470Z,2.94
2023-02-02T12:00:30.902Z,2.93
2023-02-02T12:02:58.446Z,2.99
2023-02-02T12:05:25.197Z,3.00
2023-02-02T12:07:51.938Z,3.05
2023-02-02T12:10:29.238Z,3.15
2023-02-02T12:13:05.939Z,3.25
2023-02-02T12:15:42.946Z,3.10
2023-02-02T12:18:30.798Z,3.12
2023-02-02T12:21:21.630Z,3.08
2023-02-02T12:24:02.796Z,3.01
2023-02-02T12:26:33.390Z,3.07
2023-02-02T12:29:30.606Z,3.07
2023-02-02T12:32:09.089Z,2.99
2023-02-02T12:35:02.126Z,3.14
2023-02-02T12:38:00.034Z,3.14
2023-02-02T12:40:57.192Z,3.11
2023-02-02T12:43:29.470Z,3.15
2023-02-02T12:46:07.175Z,3.11
2023-02-02T12:48:48.258Z,3.12
2023-02-02T12:51:32.518Z,3.16
2023-02-02T12:54:32.856Z,3.12
2023-02-02T12:56:53.941Z,3.23
2023-02-02T13:00:00.621Z,3.18
2023-02-02T13:02:53.293Z,3.03
2023-02-02T13:06:04.843Z,3.05
2023-02-02T13:08:45.873Z,3.11
2023-02-02T13:11:30.229Z,3.08
2023-02-02T13:14:08.662Z,3.03
2023-02-02T13:16:38.184Z,3.04
2023-02-02T13:19:15.266Z,3.15
2023-02-02T13:21:43.357Z,3.04
2023-02-02T13:24:15.261Z,3.08
2023-02-02T13:26:46.080Z,3.19
2023-02-02T13:29:30.376Z,3.21
2023-02-02T13:32:03.239Z,3.14
2023-02-02T13:34:39.139Z,3.20
2023-02-02T13:37:18.887Z,3.18
2023-02-02T13:39:54.062Z,3.21
2023-02-02T13:42:48.510Z,3.24
2023-02-02T13:45:34.037Z,3.26
2023-02-02T13:48:13.030Z,3.30
2023-02-02T13:50:53.774Z,3.27
2023-02-02T13:53:39.853Z,3.33
2023-02-02T13:56:40.607Z,3.24
2023-02-02T13:59:45.766Z,3.44
2023-02-02T14:02:32.380Z,3.45
2023-02-02T14:05:02.043Z,3.44
2023-02-02T14:07:44.170Z,3.34
2023-02-02T14:10:31.678Z,3.37
2023-02-02T14:13:30.190Z,3.41
2023-02-02T14:15:58.610Z,3.37
2023-02-02T14:18:55.896Z,3.50
2023-02-02T14:21:31.826Z,3.49
2023-02-02T14:23:59.817Z,3.50
2023-02-02T14:26:50.887Z,3.49
2023-02-02T14:29:32.730Z,3.53
2023-02-02T14:32:03.526Z,3.52
2023-02-02T14:34:37.091Z,3.56
2023-02-02T14:37:14.595Z,3.52
2023-02-02T14:39:48.511Z,3.49
2023-02-02T14:42:45.248Z,3.49
2023-02-02T14:45:11.876Z,3.52
2023-02-02T14:47:52.914Z,3.52
2023-02-02T14:50:41.836Z,3.49
2023-02-02T14:53:15.215Z,3.51
2023-02-02T14:55:56.046Z,3.46
2023-02-02T14:58:34.187Z,3.49
2023-02-02T15:01:06.596Z,3.52
2023-02-02T15:03:35.310Z,3.57
2023-02-02T15:06:14.304Z,3.52
2023-02-02T15:08:41.109Z,3.49
2023-02-02T15:11:27.644Z,3.47
2023-02-02T15:14:07.401Z,3.48
2023-02-02T15:16:37.097Z,3.47
2023-02-02T15:19:31.594Z,3.47
2023-02-02T15:22:05.995Z,3.47
2023-02-02T15:24:36.487Z,3.48
2023-02-02T15:27:04.739Z,3.49
2023-02-02T15:29:44.790Z,3.45
2023-02-02T15:32:20.457Z,3.47
2023-02-02T15:34:51.260Z,3.48
2023-02-02T15:37:23.718Z,3.47
2023-02-02T15:39:56.993Z,3.43
2023-02-02T15:42:54.222Z,3.48
2023-02-02T15:45:55.059Z,3.44
2023-02-02T15:48:30.079Z,3.46
2023-02-02T15:51:03.120Z,3.48
2023-02-02T15:53:49.592Z,3.51
2023-02-02T15:56:30.632Z,3.40
2023-02-02T15:58:59.710Z,3.33
2023-02-02T16:01:30.557Z,3.32
2023-02-02T16:04:31.053Z,3.37
2023-02-02T16:06:58.034Z,3.26
2023-02-02T16:09:33.021Z,3.24
2023-02-02T16:11:59.711Z,3.24
2023-02-02T16:14:26.357Z,3.27
2023-02-02T16:16:53.138Z,3.21
2023-02-02T16:19:25.018Z,3.21
2023-02-02T16:22:04.458Z,3.21
2023-02-02T16:24:37.219Z,3.19
2023-02-02T16:27:07.223Z,3.28
2023-02-02T16:29:35.035Z,3.24
2023-02-02T16:32:01.977Z,3.23
2023-02-02T16:34:46.800Z,3.22
2023-02-02T16:37:27.456Z,3.31
2023-02-02T16:40:28.054Z,3.19
2023-02-02T16:43:28.455Z,3.18
2023-02-02T16:46:01.377Z,3.18
2023-02-02T16:48:35.824Z,3.17
2023-02-02T16:51:18.094Z,3.12
2023-02-02T16:53:47.752Z,3.09
2023-02-02T16:56:42.353Z,3.18
2023-02-02T16:59:30.060Z,3.16
2023-02-02T17:01:59.821Z,3.18
2023-02-02T17:04:34.093Z,3.07
2023-02-02T17:07:13.349Z,3.06
2023-02-02T17:09:42.607Z,3.05
2023-02-02T17:12:35.211Z,2.99
2023-02-02T17:15:25.961Z,3.06
2023-02-02T17:17:52.790Z,3.11
2023-02-02T17:20:20.067Z,2.98
2023-02-02T17:22:49.792Z,3.02
2023-02-02T17:25:28.880Z,3.03
2023-02-02T17:27:58.401Z,2.95
2023-02-02T17:30:25.381Z,2.97
2023-02-02T17:32:52.094Z,2.99
2023-02-02T17:35:22.394Z,3.03
2023-02-02T17:37:49.897Z,3.04
2023-02-02T17:40:18.088Z,2.96
2023-02-02T17:42:46.889Z,3.00
2023-02-02T17:45:28.614Z,2.93
2023-02-02T17:47:55.420Z,2.95
2023-02-02T17:50:22.266Z,2.88
2023-02-02T17:52:49.999Z,2.89
2023-02-02T17:55:24.476Z,2.87
2023-02-02T17:57:52.853Z,2.93
2023-02-02T18:00:22.927Z,2.92
2023-02-02T18:02:54.168Z,2.81
2023-02-02T18:05:22.437Z,2.86
2023-02-02T18:07:49.672Z,2.88
2023-02-02T18:10:17.036Z,2.81
2023-02-02T18:12:43.789Z,2.72
2023-02-02T18:15:14.310Z,2.77
2023-02-02T18:17:41.916Z,2.84
2023-02-02T18:20:09.912Z,2.73
2023-02-02T18:22:36.541Z,2.67
2023-02-02T18:25:05.129Z,2.65
2023-02-02T18:27:31.994Z,2.70
2023-02-02T18:29:58.614Z,2.55
2023-02-02T18:32:25.368Z,2.53
2023-02-02T18:34:55.717Z,2.52
2023-02-02T18:37:24.186Z,2.52
2023-02-02T18:39:50.777Z,2.53
2023-02-02T18:42:17.631Z,2.61
2023-02-02T18:44:45.101Z,2.52
2023-02-02T18:47:11.856Z,2.45
2023-02-02T18:49:38.447Z,2.44
2023-02-02T18:52:05.232Z,2.50
2023-02-02T18:54:34.081Z,2.42
2023-02-02T18:57:00.668Z,2.34
2023-02-02T18:59:28.641Z,2.29
2023-02-02T19:01:55.844Z,2.22
2023-02-02T19:04:22.535Z,2.21
2023-02-02T19:07:07.937Z,2.20
2023-02-02T19:09:35.153Z,2.18
2023-02-02T19:12:02.418Z,2.22
2023-02-02T19:14:33.314Z,2.23
2023-02-02T19:17:20.453Z,2.17
2023-02-02T19:19:48.600Z,2.11
2023-02-02T19:22:20.065Z,2.14
2023-02-02T19:24:47.527Z,2.13
2023-02-02T19:27:22.422Z,2.09
2023-02-02T19:29:52.117Z,2.09
2023-02-02T19:32:22.157Z,2.06
2023-02-02T19:34:51.852Z,2.08
2023-02-02T19:37:30.310Z,2.07
2023-02-02T19:40:09.168Z,2.08
2023-02-02T19:42:40.676Z,2.07
2023-02-02T19:45:34.290Z,2.08
2023-02-02T19:48:11.866Z,2.03
2023-02-02T19:50:41.518Z,2.05
2023-02-02T19:53:35.934Z,2.05
2023-02-02T19:56:21.681Z,2.10
2023-02-02T19:58:49.065Z,2.09
2023-02-02T20:01:20.081Z,2.07
2023-02-02T20:03:46.957Z,2.04
2023-02-02T20:06:22.004Z,2.07
2023-02-02T20:08:48.645Z,2.08
2023-02-02T20:11:39.749Z,2.06
2023-02-02T20:14:18.909Z,2.04
2023-02-02T20:16:52.905Z,2.05
2023-02-02T20:19:22.230Z,2.08
2023-02-02T20:21:51.541Z,2.09
2023-02-02T20:24:25.511Z,2.06
2023-02-02T20:26:55.441Z,2.04
2023-02-02T20:29:36.547Z,2.01
2023-02-02T20:32:04.824Z,2.04
2023-02-02T20:34:35.275Z,2.05
2023-02-02T20:37:14.319Z,2.07
2023-02-02T20:40:01.523Z,2.11
2023-02-02T20:42:29.301Z,2.06
2023-02-02T20:44:58.402Z,2.16
2023-02-02T20:47:25.247Z,2.18
2023-02-02T20:49:51.981Z,2.17
2023-02-02T20:52:24.207Z,2.14
2023-02-02T20:54:51.970Z,2.16
2023-02-02T20:57:19.173Z,2.13
2023-02-02T20:59:46.059Z,2.17
2023-02-02T21:02:19.040Z,2.12
2023-02-02T21:04:49.301Z,2.25
2023-02-02T21:07:17.177Z,2.28
2023-02-02T21:09:44.859Z,2.25
2023-02-02T21:12:11.830Z,2.24
2023-02-02T21:14:39.230Z,2.21
2023-02-02T21:17:14.706Z,2.17
2023-02-02T21:19:42.063Z,2.20
2023-02-02T21:22:08.709Z,2.28
2023-02-02T21:24:35.499Z,2.30
2023-02-02T21:27:03.547Z,2.34
2023-02-02T21:29:31.882Z,2.36
2023-02-02T21:32:01.671Z,2.38
2023-02-02T21:34:29.382Z,2.40
2023-02-02T21:36:58.327Z,2.44
2023-02-02T21:39:29.493Z,2.49
2023-02-02T21:42:08.296Z,2.60
2023-02-02T21:44:41.353Z,2.57
2023-02-02T21:47:33.130Z,2.62
2023-02-02T21:50:11.921Z,2.67
2023-02-02T21:52:38.590Z,2.67
2023-02-02T21:55:31.255Z,2.80
2023-02-02T21:57:58.899Z,2.80
2023-02-02T22:00:29.004Z,2.84
2023-02-02T22:02:55.891Z,2.79
2023-02-02T22:05:36.689Z,2.78
2023-02-02T22:08:18.605Z,2.74
2023-02-02T22:10:45.582Z,2.88
2023-02-02T22:13:21.019Z,3.00
2023-02-02T22:15:49.823Z,3.01
2023-02-02T22:18:19.562Z,3.02
2023-02-02T22:20:48.162Z,3.03
2023-02-02T22:23:16.755Z,2.98
2023-02-02T22:25:45.169Z,3.18
2023-02-02T22:28:21.146Z,3.23
2023-02-02T22:30:49.428Z,3.23
2023-02-02T22:33:16.520Z,3.50
2023-02-02T22:35:43.791Z,3.64
2023-02-02T22:38:18.311Z,3.66
2023-02-02T22:40:46.217Z,3.55
2023-02-02T22:43:16.729Z,3.58
2023-02-02T22:45:46.793Z,3.54
2023-02-02T22:48:14.700Z,3.60
2023-02-02T22:50:41.843Z,3.62
2023-02-02T22:53:08.382Z,3.76
2023-02-02T22:55:35.320Z,3.72
2023-02-02T22:58:02.051Z,3.67
2023-02-02T23:00:30.977Z,3.76
2023-02-02T23:02:57.721Z,3.89
2023-02-02T23:05:26.254Z,3.98
2023-02-02T23:07:53.911Z,3.98
2023-02-02T23:10:26.600Z,4.08
2023-02-02T23:12:55.751Z,4.20
2023-02-02T23:15:22.666Z,4.18
2023-02-02T23:17:49.612Z,4.29
2023-02-02T23:20:16.898Z,4.25
2023-02-02T23:22:43.835Z,4.34
2023-02-02T23:25:12.391Z,4.22
2023-02-02T23:27:39.178Z,4.31
2023-02-02T23:30:07.572Z,4.28
2023-02-02T23:32:34.881Z,4.34
2023-02-02T23:35:01.733Z,4.38
2023-02-02T23:37:28.331Z,4.38
2023-02-02T23:39:54.989Z,4.36
2023-02-02T23:42:21.763Z,4.36
2023-02-02T23:44:48.367Z,4.44
2023-02-02T23:47:16.121Z,4.53
2023-02-02T23:49:43.182Z,4.58
2023-02-02T23:52:10.150Z,4.71
2023-02-02T23:54:37.173Z,4.72
2023-02-02T23:57:04.121Z,4.73
2023-02-02T23:59:30.753Z,4.71
